Time;durP1;ratioP1;P1;durP2;ratioP2;P2;SDS_P1;SDS_P2;PMS_P1;PMS_P2;Temp;Humidity;BMP_temperature;BMP_pressure;BME280_temperature;BME280_humidity;BME280_pressure;Samples;Min_cycle;Max_cycle;Signal;HPM_P1;HPM_P2
2021/04/02 00:01:53;;;;;;;7.47;3.97;;;8.40;99.90;;;;;;4155725;28;20484;-67
2021/04/02 00:03:54;;;;;;;6.85;3.50;;;8.40;99.90;;;;;;4168963;28;20029;-67
2021/04/02 00:05:56;;;;;;;9.13;3.58;;;8.40;99.90;;;;;;4157203;28;20029;-67
2021/04/02 00:07:57;;;;;;;5.43;3.50;;;8.40;99.90;;;;;;4157151;28;20025;-67
2021/04/02 00:09:57;;;;;;;8.40;3.17;;;8.40;99.90;;;;;;4167790;28;20040;-67
2021/04/02 00:11:58;;;;;;;6.78;3.33;;;8.30;99.90;;;;;;4156293;28;20038;-67
2021/04/02 00:13:59;;;;;;;9.57;3.80;;;8.30;99.90;;;;;;4159139;28;20061;-67
2021/04/02 00:15:59;;;;;;;5.95;3.00;;;8.30;99.90;;;;;;4158454;28;20568;-67
2021/04/02 00:18:00;;;;;;;7.13;3.33;;;8.30;99.90;;;;;;4157704;28;21638;-67
2021/04/02 00:20:01;;;;;;;4.85;2.85;;;8.20;99.90;;;;;;4151994;28;20034;-67
2021/04/02 00:22:02;;;;;;;7.40;3.17;;;8.20;99.90;;;;;;4158264;28;20037;-67
2021/04/02 00:24:03;;;;;;;5.53;2.72;;;8.20;99.90;;;;;;4160895;28;20090;-67
2021/04/02 00:26:21;;;;;;;4.30;2.75;;;8.20;99.90;;;;;;4179607;28;20481;-67
2021/04/02 00:28:22;;;;;;;7.05;3.13;;;8.20;99.90;;;;;;4153603;28;20033;-67
2021/04/02 00:30:47;;;;;;;6.05;2.80;;;8.20;99.90;;;;;;4156412;28;20033;-67
2021/04/02 00:32:48;;;;;;;10.55;2.95;;;8.20;99.90;;;;;;4154611;28;20577;-67
2021/04/02 00:34:48;;;;;;;4.45;2.42;;;8.10;99.90;;;;;;4149332;28;20025;-67
2021/04/02 00:36:49;;;;;;;5.00;2.60;;;8.10;99.90;;;;;;4158816;28;20035;-67
2021/04/02 00:38:50;;;;;;;4.88;2.95;;;8.10;99.90;;;;;;4158313;28;20049;-67
2021/04/02 00:40:56;;;;;;;7.53;3.38;;;8.10;99.90;;;;;;4160201;28;20029;-67
2021/04/02 00:42:58;;;;;;;4.97;2.72;;;8.10;99.90;;;;;;4160375;28;20033;-67
2021/04/02 00:44:59;;;;;;;6.03;2.67;;;8.10;99.90;;;;;;4160378;28;20528;-67
2021/04/02 00:46:59;;;;;;;5.05;2.70;;;8.10;99.90;;;;;;4162237;28;20101;-67
2021/04/02 00:49:00;;;;;;;6.35;2.58;;;8.10;99.90;;;;;;4160784;28;20037;-67
2021/04/02 00:51:07;;;;;;;6.35;2.70;;;8.10;99.90;;;;;;4162676;28;20116;-67
2021/04/02 00:53:08;;;;;;;4.68;2.67;;;8.10;99.90;;;;;;4158942;28;20033;-67
2021/04/02 00:55:10;;;;;;;5.07;2.78;;;8.10;99.90;;;;;;4160490;28;20037;-67
2021/04/02 00:57:10;;;;;;;5.63;2.67;;;8.10;99.90;;;;;;4157366;28;20037;-67
2021/04/02 00:59:11;;;;;;;5.28;2.83;;;8.10;99.90;;;;;;4162241;28;20044;-67
2021/04/02 01:01:13;;;;;;;5.65;2.90;;;8.10;99.90;;;;;;4159135;28;20045;-67
2021/04/02 01:03:13;;;;;;;5.72;2.90;;;8.10;99.90;;;;;;4158780;28;20044;-67
2021/04/02 01:05:17;;;;;;;7.15;3.33;;;8.00;99.90;;;;;;4159295;28;20053;-67
2021/04/02 01:07:17;;;;;;;5.03;2.78;;;8.00;99.90;;;;;;4169895;28;20391;-67
2021/04/02 01:09:18;;;;;;;7.35;2.80;;;8.00;99.90;;;;;;4159854;28;20071;-67
2021/04/02 01:11:21;;;;;;;3.85;2.88;;;8.00;99.90;;;;;;4184466;28;20036;-67
2021/04/02 01:13:41;;;;;;;7.65;3.72;;;7.90;99.90;;;;;;4161846;28;20130;-67
2021/04/02 01:15:46;;;;;;;6.57;2.80;;;7.90;99.90;;;;;;4178651;28;20041;-67
2021/04/02 01:17:51;;;;;;;5.32;2.65;;;7.90;99.90;;;;;;4156684;28;20040;-67
2021/04/02 01:19:54;;;;;;;6.43;2.92;;;7.90;99.90;;;;;;4165873;28;20493;-67
2021/04/02 01:22:06;;;;;;;4.60;2.92;;;7.90;99.90;;;;;;4170118;28;20464;-67
2021/04/02 01:24:22;;;;;;;6.13;3.15;;;7.90;99.90;;;;;;4180262;28;20476;-67
2021/04/02 01:26:44;;;;;;;3.47;2.50;;;8.00;99.90;;;;;;4178655;28;20078;-67
2021/04/02 01:29:08;;;;;;;6.15;3.05;;;8.00;99.90;;;;;;4154280;28;20636;-67
2021/04/02 01:31:10;;;;;;;5.10;3.00;;;7.90;99.90;;;;;;4157984;28;20117;-67
2021/04/02 01:33:12;;;;;;;6.32;2.90;;;7.90;99.90;;;;;;4173430;28;20041;-67
2021/04/02 01:35:16;;;;;;;7.13;3.25;;;7.90;99.90;;;;;;4154846;28;20059;-67
2021/04/02 01:37:35;;;;;;;6.32;3.08;;;7.90;99.90;;;;;;4155598;28;20026;-67
2021/04/02 01:39:42;;;;;;;5.50;2.90;;;7.90;99.90;;;;;;4159893;28;20103;-67
2021/04/02 01:41:46;;;;;;;4.95;3.30;;;7.90;99.90;;;;;;4160145;28;20042;-67
2021/04/02 01:43:51;;;;;;;7.38;2.92;;;7.80;99.90;;;;;;4160597;28;20025;-67
2021/04/02 01:45:53;;;;;;;7.68;2.55;;;7.80;99.90;;;;;;4159213;28;20632;-67
2021/04/02 01:47:55;;;;;;;5.65;2.78;;;7.80;99.90;;;;;;4160222;28;20037;-67
2021/04/02 01:49:57;;;;;;;5.75;2.47;;;7.80;99.90;;;;;;4159261;28;20049;-67
2021/04/02 01:51:58;;;;;;;6.45;3.03;;;7.70;99.90;;;;;;4160606;28;20038;-67
2021/04/02 01:54:01;;;;;;;5.22;2.92;;;7.70;99.90;;;;;;4159883;28;20373;-67
2021/04/02 01:56:03;;;;;;;8.10;3.13;;;7.70;99.90;;;;;;4160440;28;20091;-67
2021/04/02 01:58:05;;;;;;;;;;;7.70;99.90;;;;;;4157959;28;20659;-67
2021/04/02 02:00:13;;;;;;;4.38;2.72;;;7.70;99.90;;;;;;4158565;28;20272;-67
2021/04/02 02:02:16;;;;;;;8.32;3.13;;;7.70;99.90;;;;;;4164475;28;20558;-67
2021/04/02 02:04:18;;;;;;;;;;;7.70;99.90;;;;;;4152950;28;20041;-67
2021/04/02 02:06:22;;;;;;;6.25;2.90;;;7.70;99.90;;;;;;4158081;28;19913;-67
2021/04/02 02:08:25;;;;;;;5.55;2.90;;;7.70;99.90;;;;;;4188036;28;20083;-67
2021/04/02 02:10:26;;;;;;;6.40;2.88;;;7.70;99.90;;;;;;4176521;28;20501;-67
2021/04/02 02:12:28;;;;;;;5.07;3.15;;;7.70;99.90;;;;;;4154757;28;20065;-67
2021/04/02 02:14:31;;;;;;;8.00;3.47;;;7.70;99.90;;;;;;4157216;28;20057;-67
2021/04/02 02:16:32;;;;;;;9.50;3.42;;;7.60;99.90;;;;;;4166722;28;20534;-67
2021/04/02 02:18:36;;;;;;;6.85;3.25;;;7.60;99.90;;;;;;4155872;28;20072;-67
2021/04/02 02:20:40;;;;;;;5.50;2.63;;;7.60;99.90;;;;;;4160775;28;20048;-67
2021/04/02 02:22:42;;;;;;;5.95;2.70;;;7.60;99.90;;;;;;4168934;28;20032;-67
2021/04/02 02:24:43;;;;;;;4.85;2.85;;;7.60;99.90;;;;;;4153657;28;20041;-67
2021/04/02 02:26:44;;;;;;;5.65;3.08;;;7.60;99.90;;;;;;4169232;28;20033;-67
2021/04/02 02:28:46;;;;;;;5.40;2.78;;;7.60;99.90;;;;;;4190197;28;20134;-67
2021/04/02 02:30:46;;;;;;;5.78;3.28;;;7.60;99.90;;;;;;4174602;28;20056;-67
2021/04/02 02:32:48;;;;;;;6.32;2.90;;;7.60;99.90;;;;;;4159490;28;20034;-67
2021/04/02 02:34:48;;;;;;;5.95;3.17;;;7.60;99.90;;;;;;4158965;28;20029;-67
2021/04/02 02:36:49;;;;;;;8.00;3.05;;;7.60;99.90;;;;;;4157160;28;20359;-67
2021/04/02 02:38:50;;;;;;;8.77;3.40;;;7.60;99.90;;;;;;4159467;28;20041;-67
2021/04/02 02:40:51;;;;;;;6.72;3.47;;;7.50;99.90;;;;;;4161227;28;20026;-67
2021/04/02 02:42:54;;;;;;;7.97;3.78;;;7.50;99.90;;;;;;4159684;28;20064;-67
2021/04/02 02:44:55;;;;;;;8.13;3.20;;;7.50;99.90;;;;;;4156724;28;20422;-67
2021/04/02 02:46:55;;;;;;;5.97;3.20;;;7.50;99.90;;;;;;4151343;28;20081;-67
2021/04/02 02:49:01;;;;;;;6.05;3.28;;;7.50;99.90;;;;;;4185370;28;20054;-67
2021/04/02 02:51:02;;;;;;;7.90;4.03;;;7.50;99.90;;;;;;4174194;28;20037;-67
2021/04/02 02:53:05;;;;;;;10.23;3.60;;;7.50;99.90;;;;;;4154253;28;20104;-67
2021/04/02 02:55:07;;;;;;;5.05;2.85;;;7.50;99.90;;;;;;4155743;28;20367;-67
2021/04/02 02:57:10;;;;;;;5.63;3.40;;;7.40;99.90;;;;;;4174689;28;20068;-67
2021/04/02 02:59:15;;;;;;;7.78;3.65;;;7.50;99.90;;;;;;4159443;28;20049;-67
2021/04/02 03:01:16;;;;;;;6.88;3.17;;;7.50;99.90;;;;;;4154074;28;20174;-67
2021/04/02 03:03:19;;;;;;;6.22;3.20;;;7.50;99.90;;;;;;4152153;28;20034;-67
2021/04/02 03:05:22;;;;;;;6.22;3.25;;;7.50;99.90;;;;;;4156978;28;20041;-67
2021/04/02 03:07:25;;;;;;;9.13;3.28;;;7.50;99.90;;;;;;4155381;28;20038;-67
2021/04/02 03:09:27;;;;;;;4.82;3.25;;;7.50;99.90;;;;;;4188410;28;20177;-67
2021/04/02 03:11:28;;;;;;;8.30;3.88;;;7.50;99.90;;;;;;4162075;28;20079;-67
2021/04/02 03:13:30;;;;;;;5.32;3.08;;;7.60;99.90;;;;;;4157705;28;20587;-67
2021/04/02 03:15:32;;;;;;;5.35;3.10;;;7.60;99.90;;;;;;4158567;28;20065;-68
2021/04/02 03:17:39;;;;;;;5.28;3.05;;;7.50;99.90;;;;;;4158217;28;20037;-67
2021/04/02 03:19:42;;;;;;;8.98;3.55;;;7.60;99.90;;;;;;4160155;28;20030;-67
2021/04/02 03:21:47;;;;;;;;;;;7.60;99.90;;;;;;4141610;28;20042;-67
2021/04/02 03:23:49;;;;;;;5.43;3.30;;;7.50;99.90;;;;;;4155324;28;20663;-67
2021/04/02 03:25:50;;;;;;;5.07;3.15;;;7.50;99.90;;;;;;4161104;28;20037;-67
2021/04/02 03:27:53;;;;;;;5.93;3.00;;;7.50;99.90;;;;;;4166081;28;20079;-67
2021/04/02 03:29:54;;;;;;;6.68;3.25;;;7.60;99.90;;;;;;4159078;28;20042;-67
2021/04/02 03:32:00;;;;;;;8.18;3.20;;;7.50;99.90;;;;;;4157327;28;20037;-67
2021/04/02 03:34:01;;;;;;;6.22;3.28;;;7.50;99.90;;;;;;4187953;28;20048;-67
2021/04/02 03:36:08;;;;;;;5.15;3.45;;;7.60;99.90;;;;;;4153696;28;20088;-67
2021/04/02 03:38:12;;;;;;;6.32;3.03;;;7.60;99.90;;;;;;4158925;28;20420;-67
2021/04/02 03:40:16;;;;;;;8.25;3.28;;;7.60;99.90;;;;;;4141721;28;20061;-67
2021/04/02 03:42:18;;;;;;;8.57;3.72;;;7.60;99.90;;;;;;4162537;28;20036;-67
2021/04/02 03:44:21;;;;;;;7.65;3.22;;;7.50;99.90;;;;;;4158722;28;20489;-68
2021/04/02 03:46:22;;;;;;;10.10;3.55;;;7.50;99.90;;;;;;4158721;28;20033;-68
2021/04/02 03:48:24;;;;;;;4.00;2.57;;;7.50;99.90;;;;;;4158880;28;20485;-68
2021/04/02 03:50:30;;;;;;;9.67;3.43;;;7.50;99.90;;;;;;4155983;28;21750;-68
2021/04/02 03:52:34;;;;;;;9.68;3.63;;;7.50;99.90;;;;;;4160064;28;20057;-68
2021/04/02 03:54:37;;;;;;;7.15;3.08;;;7.50;99.90;;;;;;4160216;28;20735;-67
2021/04/02 03:56:42;;;;;;;7.97;3.05;;;7.50;99.90;;;;;;4158836;28;20042;-68
2021/04/02 03:58:45;;;;;;;7.45;3.15;;;7.50;99.90;;;;;;4154155;28;20045;-68
2021/04/02 04:00:52;;;;;;;15.52;3.58;;;7.50;99.90;;;;;;4156800;28;20026;-68
2021/04/02 04:02:54;;;;;;;7.25;3.05;;;7.50;99.90;;;;;;4149989;28;20037;-68
2021/04/02 04:04:55;;;;;;;9.38;3.15;;;7.50;99.90;;;;;;4155689;28;20037;-68
2021/04/02 04:07:03;;;;;;;6.75;3.38;;;7.50;99.90;;;;;;4171941;28;20516;-67
2021/04/02 04:09:11;;;;;;;8.45;3.20;;;7.50;99.90;;;;;;4157352;28;20048;-67
2021/04/02 04:11:14;;;;;;;9.63;2.72;;;7.40;99.90;;;;;;4155011;28;20068;-68
2021/04/02 04:13:16;;;;;;;;;;;7.40;99.90;;;;;;4154998;28;20083;-68
2021/04/02 04:15:17;;;;;;;3.83;2.47;;;7.50;99.90;;;;;;4156355;28;20479;-68
2021/04/02 04:17:20;;;;;;;5.97;2.65;;;7.40;99.90;;;;;;4156976;28;20030;-68
2021/04/02 04:19:23;;;;;;;7.72;3.00;;;7.40;99.90;;;;;;4157739;28;20544;-67
2021/04/02 04:21:30;;;;;;;5.18;2.38;;;7.40;99.90;;;;;;4156161;28;20088;-67
2021/04/02 04:23:32;;;;;;;5.82;2.80;;;7.40;99.90;;;;;;4156971;28;20577;-68
2021/04/02 04:25:34;;;;;;;7.18;3.00;;;7.40;99.90;;;;;;4159923;28;20122;-68
2021/04/02 04:27:38;;;;;;;7.17;2.43;;;7.30;99.90;;;;;;4141263;28;20044;-68
2021/04/02 04:29:46;;;;;;;4.55;2.42;;;7.40;99.90;;;;;;4155111;28;20064;-67
2021/04/02 04:31:48;;;;;;;5.60;2.22;;;7.30;99.90;;;;;;4171311;28;20045;-68
2021/04/02 04:33:51;;;;;;;6.00;2.10;;;7.30;99.90;;;;;;4156395;28;20037;-68
2021/04/02 04:35:53;;;;;;;6.80;2.42;;;7.30;99.90;;;;;;4159012;28;20280;-67
2021/04/02 04:37:54;;;;;;;7.50;2.65;;;7.30;99.90;;;;;;4135952;28;20125;-67
2021/04/02 04:39:56;;;;;;;6.45;2.30;;;7.30;99.90;;;;;;4152358;28;20053;-68
2021/04/02 04:41:58;;;;;;;7.65;2.88;;;7.30;99.90;;;;;;4155914;28;20037;-67
2021/04/02 04:44:01;;;;;;;9.23;2.65;;;7.30;99.90;;;;;;4155143;28;20029;-67
2021/04/02 04:46:02;;;;;;;4.70;2.47;;;7.30;99.90;;;;;;4155664;28;20224;-68
2021/04/02 04:48:03;;;;;;;6.55;2.65;;;7.20;99.90;;;;;;4158323;28;20034;-68
2021/04/02 04:50:06;;;;;;;8.82;2.85;;;7.20;99.90;;;;;;4158494;28;20113;-68
2021/04/02 04:52:08;;;;;;;7.97;2.65;;;7.10;99.90;;;;;;4155583;28;20679;-68
2021/04/02 04:54:12;;;;;;;8.07;2.88;;;7.10;99.90;;;;;;4157912;28;20030;-68
2021/04/02 04:56:15;;;;;;;4.63;2.30;;;7.10;99.90;;;;;;4155725;28;20033;-68
2021/04/02 04:58:19;;;;;;;5.80;2.95;;;7.10;99.90;;;;;;4156535;28;20878;-68
2021/04/02 05:00:22;;;;;;;12.23;3.03;;;7.10;99.90;;;;;;4179023;28;20024;-68
2021/04/02 05:02:23;;;;;;;9.27;2.88;;;7.10;99.90;;;;;;4150641;28;20057;-68
2021/04/02 05:04:25;;;;;;;8.85;2.72;;;7.10;99.90;;;;;;4156866;28;20030;-67
2021/04/02 05:06:29;;;;;;;7.47;3.05;;;7.10;99.90;;;;;;4152482;28;20064;-67
2021/04/02 05:08:39;;;;;;;9.93;2.97;;;7.10;99.90;;;;;;4170273;28;20072;-68
2021/04/02 05:10:41;;;;;;;10.05;3.38;;;7.10;99.90;;;;;;4157596;28;21367;-68
2021/04/02 05:12:45;;;;;;;5.32;2.83;;;7.10;99.90;;;;;;4155113;28;20072;-68
2021/04/02 05:14:47;;;;;;;7.22;2.60;;;7.10;99.90;;;;;;4172994;28;20068;-68
2021/04/02 05:16:49;;;;;;;9.82;3.30;;;7.10;99.90;;;;;;4154582;28;20064;-68
2021/04/02 05:18:52;;;;;;;7.10;2.85;;;7.10;99.90;;;;;;4155682;28;20057;-68
2021/04/02 05:20:53;;;;;;;7.88;2.70;;;7.20;99.90;;;;;;4155353;28;20041;-68
2021/04/02 05:22:53;;;;;;;8.40;3.05;;;7.20;99.90;;;;;;4150833;28;20373;-68
2021/04/02 05:24:54;;;;;;;9.65;3.20;;;7.20;99.90;;;;;;4157029;28;20032;-68
2021/04/02 05:26:55;;;;;;;7.95;3.30;;;7.20;99.90;;;;;;4160216;28;20113;-68
2021/04/02 05:28:56;;;;;;;7.68;2.90;;;7.20;99.90;;;;;;4158933;28;20152;-68
2021/04/02 05:30:56;;;;;;;7.80;3.00;;;7.20;99.90;;;;;;4160888;28;20065;-68
2021/04/02 05:32:57;;;;;;;8.43;3.25;;;7.20;99.90;;;;;;4161143;28;20057;-68
2021/04/02 05:34:58;;;;;;;5.13;2.63;;;7.30;99.90;;;;;;4141936;28;20040;-68
2021/04/02 05:36:58;;;;;;;8.45;2.85;;;7.30;99.90;;;;;;4188917;28;20032;-68
2021/04/02 05:38:59;;;;;;;9.48;2.70;;;7.30;99.90;;;;;;4165451;28;20067;-68
2021/04/02 05:41:07;;;;;;;7.10;2.85;;;7.30;99.90;;;;;;4161171;28;20052;-68
2021/04/02 05:43:28;;;;;;;11.40;3.72;;;7.30;99.90;;;;;;4157018;28;20041;-68
2021/04/02 05:45:30;;;;;;;11.73;4.15;;;7.30;99.90;;;;;;4190533;28;20056;-68
2021/04/02 05:47:31;;;;;;;12.55;4.68;;;7.30;99.90;;;;;;4158568;28;20069;-68
2021/04/02 05:49:33;;;;;;;13.18;5.05;;;7.40;99.90;;;;;;4189348;28;20037;-68
2021/04/02 05:51:33;;;;;;;12.38;4.15;;;7.40;99.90;;;;;;4160536;28;20481;-68
2021/04/02 05:53:35;;;;;;;11.10;3.97;;;7.40;99.90;;;;;;4158476;28;20040;-68
2021/04/02 05:55:43;;;;;;;9.32;4.20;;;7.40;99.90;;;;;;4160199;28;20051;-68
2021/04/02 05:57:47;;;;;;;11.90;4.63;;;7.50;99.90;;;;;;4158752;28;20033;-68
2021/04/02 05:59:50;;;;;;;9.13;4.28;;;7.50;99.90;;;;;;4160746;28;20474;-68
2021/04/02 06:01:51;;;;;;;;;;;7.50;99.90;;;;;;4161212;28;20041;-68
2021/04/02 06:03:52;;;;;;;8.40;3.30;;;7.50;99.90;;;;;;4160291;28;20353;-68
2021/04/02 06:05:52;;;;;;;8.27;3.13;;;7.50;99.90;;;;;;4159717;28;20042;-68
2021/04/02 06:07:53;;;;;;;11.32;3.65;;;7.50;99.90;;;;;;4160572;28;20022;-67
2021/04/02 06:09:54;;;;;;;5.40;2.90;;;7.50;99.90;;;;;;4160334;28;20426;-68
2021/04/02 06:11:54;;;;;;;9.82;3.33;;;7.60;99.90;;;;;;4161270;28;20029;-68
2021/04/02 06:13:55;;;;;;;9.27;2.90;;;7.60;99.90;;;;;;4160175;28;20139;-68
2021/04/02 06:15:56;;;;;;;8.25;3.25;;;7.60;99.90;;;;;;4163044;28;20044;-68
2021/04/02 06:18:05;;;;;;;9.85;2.80;;;7.60;99.90;;;;;;4161581;28;20524;-66
2021/04/02 06:20:07;;;;;;;9.30;2.55;;;7.60;99.90;;;;;;4159603;28;20124;-69
2021/04/02 06:22:08;;;;;;;7.13;2.70;;;7.60;99.90;;;;;;4163199;28;20377;-68
2021/04/02 06:24:12;;;;;;;8.13;2.80;;;7.60;99.90;;;;;;4176453;28;20033;-66
2021/04/02 06:26:13;;;;;;;5.78;2.72;;;7.60;99.90;;;;;;4163725;28;20037;-66
2021/04/02 06:28:18;;;;;;;8.65;2.80;;;7.70;99.90;;;;;;4160439;28;20057;-66
2021/04/02 06:30:22;;;;;;;10.80;3.00;;;7.70;99.90;;;;;;4175240;28;20037;-66
2021/04/02 06:32:34;;;;;;;8.27;3.45;;;7.70;99.90;;;;;;4159910;28;20034;-66
2021/04/02 06:34:44;;;;;;;9.63;3.03;;;7.70;99.90;;;;;;4158734;28;20040;-66
2021/04/02 06:36:45;;;;;;;11.57;3.70;;;7.70;99.90;;;;;;4168763;28;20048;-66
2021/04/02 06:38:48;;;;;;;7.82;2.92;;;7.70;99.90;;;;;;4160281;28;20041;-66
2021/04/02 06:41:01;;;;;;;9.93;3.30;;;7.70;99.90;;;;;;4160137;28;20052;-66
2021/04/02 06:43:04;;;;;;;11.48;3.55;;;7.60;99.90;;;;;;4154830;28;20528;-66
2021/04/02 06:45:07;;;;;;;9.52;3.60;;;7.60;99.90;;;;;;4166515;28;20053;-66
2021/04/02 06:47:08;;;;;;;8.88;3.53;;;7.60;99.90;;;;;;4159140;28;20034;-66
2021/04/02 06:49:12;;;;;;;8.32;3.25;;;7.60;99.90;;;;;;4159737;28;20044;-66
2021/04/02 06:51:15;;;;;;;10.88;4.32;;;7.50;99.90;;;;;;4161944;28;20033;-66
2021/04/02 06:53:18;;;;;;;8.90;3.85;;;7.50;99.90;;;;;;4162727;28;20064;-66
2021/04/02 06:55:19;;;;;;;;;;;7.50;99.90;;;;;;4158912;28;20041;-66
2021/04/02 06:57:23;;;;;;;8.52;4.20;;;7.50;99.90;;;;;;4157606;28;19959;-66
2021/04/02 06:59:25;;;;;;;9.05;4.20;;;7.50;99.90;;;;;;4159646;28;20037;-66
2021/04/02 07:01:28;;;;;;;11.23;4.93;;;7.40;99.90;;;;;;4159312;28;20038;-66
2021/04/02 07:03:30;;;;;;;9.43;4.70;;;7.50;99.90;;;;;;4160101;28;20037;-66
2021/04/02 07:05:32;;;;;;;9.35;4.88;;;7.50;99.90;;;;;;4159230;28;20033;-66
2021/04/02 07:07:36;;;;;;;15.48;5.15;;;7.50;99.90;;;;;;4160232;28;20534;-66
2021/04/02 07:09:40;;;;;;;13.55;5.50;;;7.50;99.90;;;;;;4157315;28;20038;-66
2021/04/02 07:11:43;;;;;;;16.25;5.88;;;7.60;99.90;;;;;;4156020;28;20037;-66
2021/04/02 07:13:54;;;;;;;9.85;4.95;;;7.50;99.90;;;;;;4161394;28;20045;-66
2021/04/02 07:15:56;;;;;;;7.25;4.47;;;7.50;99.90;;;;;;4179400;28;20056;-66
2021/04/02 07:17:59;;;;;;;11.88;4.43;;;7.60;99.90;;;;;;4158732;28;20034;-66
2021/04/02 07:20:00;;;;;;;15.48;4.80;;;7.60;99.90;;;;;;4160501;28;20038;-66
2021/04/02 07:22:01;;;;;;;14.27;5.53;;;7.50;99.90;;;;;;4159268;28;20060;-66
2021/04/02 07:24:03;;;;;;;9.18;3.58;;;7.50;99.90;;;;;;4158109;28;20116;-66
2021/04/02 07:26:03;;;;;;;9.05;4.35;;;7.50;99.90;;;;;;4158089;28;20025;-66
2021/04/02 07:28:05;;;;;;;10.13;4.00;;;7.40;99.90;;;;;;4158879;28;20547;-66
2021/04/02 07:30:11;;;;;;;7.18;3.88;;;7.40;99.90;;;;;;4156072;28;20474;-66
2021/04/02 07:32:12;;;;;;;6.15;3.60;;;7.40;99.90;;;;;;4165024;28;20025;-66
2021/04/02 07:34:15;;;;;;;7.75;4.00;;;7.40;99.90;;;;;;4160437;28;20078;-66
2021/04/02 07:36:17;;;;;;;9.07;4.38;;;7.30;99.90;;;;;;4155880;28;23181;-66
2021/04/02 07:38:17;;;;;;;9.65;4.28;;;7.10;99.90;;;;;;4157912;28;20042;-66
2021/04/02 07:40:23;;;;;;;10.52;4.22;;;7.00;99.90;;;;;;4158424;28;20099;-66
2021/04/02 07:42:24;;;;;;;10.70;4.10;;;7.10;99.90;;;;;;4158135;28;20038;-66
2021/04/02 07:44:24;;;;;;;7.63;3.70;;;7.10;99.90;;;;;;4158181;28;20378;-66
2021/04/02 07:46:28;;;;;;;6.60;3.40;;;7.10;99.90;;;;;;4158468;28;20040;-66
2021/04/02 07:48:28;;;;;;;8.95;3.20;;;7.20;99.90;;;;;;4157298;28;21183;-66
2021/04/02 07:50:35;;;;;;;6.80;3.30;;;7.20;99.90;;;;;;4182698;28;20099;-66
2021/04/02 07:52:35;;;;;;;7.82;3.60;;;7.30;99.90;;;;;;4158679;28;20045;-66
2021/04/02 07:54:40;;;;;;;9.45;3.72;;;7.30;99.90;;;;;;4157941;28;20038;-67
2021/04/02 07:56:41;;;;;;;7.28;3.78;;;7.20;99.90;;;;;;4158497;28;20072;-66
2021/04/02 07:58:52;;;;;;;6.88;3.72;;;7.30;99.90;;;;;;4158743;28;20172;-67
2021/04/02 08:00:57;;;;;;;7.18;3.15;;;7.40;99.90;;;;;;4156813;28;20029;-67
2021/04/02 08:03:13;;;;;;;6.88;3.67;;;7.40;99.90;;;;;;4156804;28;20045;-67
2021/04/02 08:05:15;;;;;;;8.30;4.28;;;7.40;99.90;;;;;;4156908;28;20056;-67
2021/04/02 08:07:17;;;;;;;9.32;4.15;;;7.40;99.90;;;;;;4159639;28;20049;-67
2021/04/02 08:09:17;;;;;;;12.00;4.22;;;7.30;99.90;;;;;;4158991;28;20444;-66
2021/04/02 08:11:37;;;;;;;7.75;4.15;;;7.40;99.90;;;;;;4158404;28;20033;-66
2021/04/02 08:14:04;;;;;;;9.43;4.13;;;7.40;99.90;;;;;;4156034;28;20124;-67
2021/04/02 08:16:27;;;;;;;8.82;4.82;;;7.40;99.90;;;;;;4151764;28;20056;-66
2021/04/02 08:18:28;;;;;;;;;;;7.40;99.90;;;;;;4181131;28;20079;-66
2021/04/02 08:20:28;;;;;;;14.65;7.90;;;7.40;99.90;;;;;;4183629;28;19916;-67
2021/04/02 08:22:29;;;;;;;15.82;8.25;;;7.50;99.90;;;;;;4173324;28;20525;-66
2021/04/02 08:24:39;;;;;;;18.88;9.93;;;7.40;99.90;;;;;;4157262;28;20041;-66
2021/04/02 08:26:42;;;;;;;18.20;8.13;;;7.50;99.90;;;;;;4157885;28;20042;-68
2021/04/02 08:28:42;;;;;;;16.35;7.60;;;7.40;99.90;;;;;;4158162;28;20076;-68
2021/04/02 08:30:43;;;;;;;18.10;6.93;;;7.50;99.90;;;;;;4155671;28;20038;-68
2021/04/02 08:32:46;;;;;;;9.52;5.60;;;7.50;99.90;;;;;;4158100;28;20041;-67
2021/04/02 08:34:47;;;;;;;10.73;5.32;;;7.50;99.90;;;;;;4158445;28;20476;-67
2021/04/02 08:36:51;;;;;;;7.78;4.40;;;7.60;99.90;;;;;;4160030;28;20029;-67
2021/04/02 08:38:53;;;;;;;6.53;4.10;;;7.60;99.90;;;;;;4158329;28;20053;-69
2021/04/02 08:40:55;;;;;;;19.33;6.35;;;7.60;99.90;;;;;;4159403;28;20061;-68
2021/04/02 08:43:05;;;;;;;11.23;5.55;;;7.60;99.90;;;;;;4158856;28;20056;-68
2021/04/02 08:45:09;;;;;;;11.43;5.15;;;7.60;99.90;;;;;;4157926;28;20037;-68
2021/04/02 08:47:15;;;;;;;14.27;7.43;;;7.70;99.90;;;;;;4158994;28;20622;-68
2021/04/02 08:49:16;;;;;;;13.05;8.05;;;7.70;99.90;;;;;;4189031;28;20716;-68
2021/04/02 08:51:20;;;;;;;16.05;8.88;;;7.80;99.90;;;;;;4173899;28;20049;-68
2021/04/02 08:53:20;;;;;;;17.92;9.35;;;7.80;99.90;;;;;;4157946;28;20041;-68
2021/04/02 08:55:26;;;;;;;17.05;8.70;;;7.90;99.90;;;;;;4158402;28;20075;-68
2021/04/02 08:57:30;;;;;;;18.48;11.27;;;7.90;99.90;;;;;;4155037;28;20038;-68
2021/04/02 08:59:34;;;;;;;26.52;14.40;;;7.90;99.90;;;;;;4157439;28;20060;-68
2021/04/02 09:01:41;;;;;;;24.95;13.98;;;8.00;99.90;;;;;;4161049;28;20099;-67
2021/04/02 09:03:42;;;;;;;29.90;14.70;;;8.00;99.90;;;;;;4162023;28;20030;-67
2021/04/02 09:05:42;;;;;;;19.23;11.43;;;8.00;99.90;;;;;;4162124;28;20038;-67
2021/04/02 09:07:43;;;;;;;18.23;9.40;;;8.00;99.90;;;;;;4161822;28;20041;-67
2021/04/02 09:09:46;;;;;;;17.30;9.02;;;8.00;99.90;;;;;;4161277;28;20029;-67
2021/04/02 09:11:48;;;;;;;;;;;8.00;99.90;;;;;;4161368;28;20045;-67
2021/04/02 09:13:52;;;;;;;17.08;8.95;;;8.00;99.90;;;;;;4161485;28;19995;-67
2021/04/02 09:15:52;;;;;;;18.33;8.05;;;8.00;99.90;;;;;;4160152;28;20049;-67
2021/04/02 09:17:53;;;;;;;14.55;7.13;;;7.90;99.90;;;;;;4161905;28;20064;-67
2021/04/02 09:19:54;;;;;;;16.30;8.90;;;8.00;99.90;;;;;;4161319;28;20038;-67
2021/04/02 09:21:56;;;;;;;17.83;8.82;;;8.00;99.90;;;;;;4161100;28;20044;-67
2021/04/02 09:23:56;;;;;;;14.30;9.13;;;8.00;99.90;;;;;;4160706;28;20033;-67
2021/04/02 09:25:59;;;;;;;25.27;12.48;;;8.00;99.90;;;;;;4160876;28;20440;-67
2021/04/02 09:28:06;;;;;;;18.80;12.60;;;8.00;99.90;;;;;;4174801;28;20120;-67
2021/04/02 09:30:08;;;;;;;24.42;13.45;;;8.00;99.90;;;;;;4161201;28;20571;-67
2021/04/02 09:32:08;;;;;;;21.13;11.43;;;8.00;99.90;;;;;;4161167;28;20539;-67
2021/04/02 09:34:12;;;;;;;23.88;14.48;;;8.00;99.90;;;;;;4160088;28;20026;-67
2021/04/02 09:36:13;;;;;;;19.30;11.50;;;8.10;99.90;;;;;;4161020;28;20528;-67
2021/04/02 09:38:14;;;;;;;17.83;7.10;;;8.10;99.90;;;;;;4160838;28;20033;-67
2021/04/02 09:40:16;;;;;;;11.35;4.93;;;8.10;99.90;;;;;;4160563;28;20036;-67
2021/04/02 09:42:16;;;;;;;10.23;4.20;;;8.20;99.90;;;;;;4161191;28;20049;-67
2021/04/02 09:44:20;;;;;;;9.40;4.22;;;8.20;99.90;;;;;;4160581;28;20043;-67
2021/04/02 09:46:38;;;;;;;10.32;4.00;;;8.20;99.90;;;;;;4175805;28;20029;-67
2021/04/02 09:48:39;;;;;;;14.13;3.90;;;8.20;99.90;;;;;;4188085;28;20066;-67
2021/04/02 09:50:40;;;;;;;6.45;3.85;;;8.20;99.90;;;;;;4160920;28;20055;-67
2021/04/02 09:52:43;;;;;;;13.85;4.40;;;8.10;99.90;;;;;;4160838;28;20490;-67
2021/04/02 09:54:43;;;;;;;;;;;8.20;99.90;;;;;;4158872;28;20029;-67
2021/04/02 09:56:45;;;;;;;9.70;3.97;;;8.20;99.90;;;;;;4161293;28;20012;-67
2021/04/02 09:58:46;;;;;;;10.05;3.15;;;8.20;99.90;;;;;;4160560;28;20044;-67
2021/04/02 10:00:46;;;;;;;6.75;3.30;;;8.20;99.90;;;;;;4159770;28;20029;-67
2021/04/02 10:02:47;;;;;;;9.85;3.50;;;8.30;99.90;;;;;;4160976;28;25861;-67
2021/04/02 10:04:47;;;;;;;7.72;2.92;;;8.30;99.90;;;;;;4160038;28;20045;-67
2021/04/02 10:06:48;;;;;;;7.95;2.90;;;8.30;99.90;;;;;;4160341;28;20498;-67
2021/04/02 10:08:49;;;;;;;6.03;2.75;;;8.40;99.90;;;;;;4160053;28;20030;-67
2021/04/02 10:10:49;;;;;;;9.40;2.80;;;8.40;99.90;;;;;;4160002;28;20041;-67
2021/04/02 10:12:50;;;;;;;5.15;2.53;;;8.40;99.90;;;;;;4158564;28;20619;-66
2021/04/02 10:14:51;;;;;;;8.68;3.03;;;8.40;99.90;;;;;;4159633;28;20037;-67
2021/04/02 10:16:51;;;;;;;7.70;3.13;;;8.40;99.90;;;;;;4158242;28;20033;-67
2021/04/02 10:18:53;;;;;;;9.00;3.10;;;8.40;99.90;;;;;;4160856;28;20041;-67
2021/04/02 10:20:55;;;;;;;6.78;2.35;;;8.40;99.90;;;;;;4160343;28;20033;-67
2021/04/02 10:22:55;;;;;;;5.95;2.40;;;8.40;99.90;;;;;;4158926;28;20100;-66
2021/04/02 10:24:56;;;;;;;8.13;2.85;;;8.50;99.90;;;;;;4158317;28;20033;-66
2021/04/02 10:26:58;;;;;;;5.40;2.28;;;8.50;99.90;;;;;;4160936;28;20045;-66
2021/04/02 10:28:59;;;;;;;5.90;2.40;;;8.60;99.90;;;;;;4159546;28;20029;-66
2021/04/02 10:31:00;;;;;;;6.18;2.13;;;8.60;99.90;;;;;;4159867;28;20544;-66
2021/04/02 10:33:01;;;;;;;12.38;3.10;;;8.70;99.90;;;;;;4159078;28;20041;-67
2021/04/02 10:35:02;;;;;;;6.30;2.53;;;8.70;99.90;;;;;;4158638;28;20029;-68
2021/04/02 10:37:03;;;;;;;7.32;2.67;;;8.70;99.90;;;;;;4158057;28;20518;-68
2021/04/02 10:39:04;;;;;;;5.97;2.28;;;8.70;99.90;;;;;;4158294;28;20036;-66
2021/04/02 10:41:05;;;;;;;10.20;2.75;;;8.70;99.90;;;;;;4159703;28;20053;-66
2021/04/02 10:43:06;;;;;;;10.80;2.90;;;8.80;99.90;;;;;;4159055;28;20042;-66
2021/04/02 10:45:07;;;;;;;5.75;2.60;;;8.80;99.90;;;;;;4156993;28;20584;-66
2021/04/02 10:47:08;;;;;;;9.43;2.95;;;8.80;99.90;;;;;;4156986;28;20036;-66
2021/04/02 10:49:09;;;;;;;11.23;2.80;;;8.80;99.90;;;;;;4184667;28;20048;-66
2021/04/02 10:51:10;;;;;;;9.38;3.17;;;8.80;99.90;;;;;;4172388;28;20128;-67